Time;durP1;ratioP1;P1;durP2;ratioP2;P2;SDS_P1;SDS_P2;PMS_P1;PMS_P2;Temp;Humidity;BMP_temperature;BMP_pressure;BME280_temperature;BME280_humidity;BME280_pressure;Samples;Min_cycle;Max_cycle;Signal;HPM_P1;HPM_P2
2022/05/13 00:00:20;;;;;;;6.03;3.47;;;;;;;;;;6294224;28;20117;-78
2022/05/13 00:03:22;;;;;;;5.47;3.33;;;;;;;;;;6317581;28;20532;-80
2022/05/13 00:06:24;;;;;;;6.13;3.35;;;;;;;;;;6338439;28;20043;-79
2022/05/13 00:09:56;;;;;;;6.30;3.70;;;;;;;;;;6319267;28;20532;-79
2022/05/13 00:12:47;;;;;;;5.07;3.35;;;;;;;;;;6287028;28;20130;-81
2022/05/13 00:15:50;;;;;;;6.35;3.80;;;;;;;;;;6295093;28;20125;-80
2022/05/13 00:18:52;;;;;;;6.40;3.43;;;;;;;;;;6294244;28;20044;-79
2022/05/13 00:21:53;;;;;;;5.03;3.60;;;;;;;;;;6310948;28;20645;-80
2022/05/13 00:24:56;;;;;;;7.45;3.83;;;;;;;;;;6315273;28;20108;-79
2022/05/13 00:27:59;;;;;;;6.75;3.92;;;;;;;;;;6289924;28;20051;-80
2022/05/13 00:31:04;;;;;;;6.47;4.10;;;;;;;;;;6291375;28;20519;-79
2022/05/13 00:34:06;;;;;;;5.82;3.42;;;;;;;;;;6310969;28;20040;-78
2022/05/13 00:37:08;;;;;;;4.63;3.30;;;;;;;;;;6298640;28;20048;-78
2022/05/13 00:40:12;;;;;;;6.82;3.85;;;;;;;;;;6298016;28;20114;-79
2022/05/13 00:43:42;;;;;;;4.40;3.53;;;;;;;;;;6318267;28;20517;-80
2022/05/13 00:46:43;;;;;;;5.85;3.70;;;;;;;;;;6302824;28;20172;-79
2022/05/13 00:49:45;;;;;;;6.28;3.72;;;;;;;;;;6339883;28;20039;-79
2022/05/13 00:52:50;;;;;;;6.05;4.03;;;;;;;;;;6321878;28;20335;-81
2022/05/13 00:55:53;;;;;;;6.07;3.58;;;;;;;;;;6320963;28;20179;-80
2022/05/13 00:58:57;;;;;;;8.05;4.40;;;;;;;;;;6322439;28;20047;-80
2022/05/13 01:01:59;;;;;;;5.35;3.72;;;;;;;;;;6320564;28;20040;-81
2022/05/13 01:05:05;;;;;;;5.22;3.53;;;;;;;;;;6346562;28;20042;-80
2022/05/13 01:08:08;;;;;;;4.70;3.42;;;;;;;;;;6347819;28;20055;-78
2022/05/13 01:11:14;;;;;;;5.15;3.40;;;;;;;;;;6344165;28;20036;-78
2022/05/13 01:14:24;;;;;;;7.68;4.10;;;;;;;;;;6347047;28;20062;-80
2022/05/13 01:20:50;;;;;;;;;;;;;;;;;;6345876;28;20127;-79
2022/05/13 01:23:53;;;;;;;6.38;3.60;;;;;;;;;;6345865;28;19942;-79
2022/05/13 01:26:54;;;;;;;4.97;3.77;;;;;;;;;;6307505;28;20048;-80
2022/05/13 01:29:56;;;;;;;6.40;4.10;;;;;;;;;;6345296;28;20454;-80
2022/05/13 01:32:58;;;;;;;6.38;4.07;;;;;;;;;;6345349;28;20050;-79
2022/05/13 01:36:01;;;;;;;4.80;3.60;;;;;;;;;;6327240;28;20593;-80
2022/05/13 01:39:04;;;;;;;5.72;3.75;;;;;;;;;;6317957;28;20089;-80
2022/05/13 01:42:06;;;;;;;5.70;3.57;;;;;;;;;;6323776;28;20049;-79
2022/05/13 01:45:10;;;;;;;5.50;3.80;;;;;;;;;;6327857;28;20035;-79
2022/05/13 01:48:12;;;;;;;4.88;3.70;;;;;;;;;;6334097;28;20548;-78
2022/05/13 01:51:14;;;;;;;5.68;3.78;;;;;;;;;;6320009;28;20044;-78
2022/05/13 01:54:15;;;;;;;5.45;3.67;;;;;;;;;;6320739;28;20139;-79
2022/05/13 01:57:17;;;;;;;6.55;4.40;;;;;;;;;;6320533;28;20088;-80
2022/05/13 02:00:19;;;;;;;4.43;3.90;;;;;;;;;;6302256;28;20111;-80
2022/05/13 02:06:42;;;;;;;5.32;4.15;;;;;;;;;;6346645;28;20079;-79
2022/05/13 02:09:44;;;;;;;8.73;4.03;;;;;;;;;;6346087;28;20129;-80
2022/05/13 02:12:46;;;;;;;7.40;4.70;;;;;;;;;;6313545;28;20119;-80
2022/05/13 02:15:48;;;;;;;5.55;3.97;;;;;;;;;;6320925;28;20090;-79
2022/05/13 02:18:51;;;;;;;6.18;4.35;;;;;;;;;;6320336;28;20588;-78
2022/05/13 02:21:52;;;;;;;8.13;4.23;;;;;;;;;;6318956;28;20043;-77
2022/05/13 02:24:54;;;;;;;7.07;4.60;;;;;;;;;;6319526;28;20081;-79
2022/05/13 02:27:57;;;;;;;5.10;3.80;;;;;;;;;;6320254;28;20512;-78
2022/05/13 02:30:59;;;;;;;;;;;;;;;;;;6320033;28;20048;-78
2022/05/13 02:34:01;;;;;;;6.47;3.85;;;;;;;;;;6337391;28;19927;-78
2022/05/13 02:37:04;;;;;;;6.13;3.72;;;;;;;;;;6345425;28;20185;-78
2022/05/13 02:40:06;;;;;;;6.93;4.55;;;;;;;;;;6326530;28;20070;-78
2022/05/13 02:43:08;;;;;;;7.70;4.38;;;;;;;;;;6342997;28;20062;-79
2022/05/13 02:46:11;;;;;;;9.88;5.10;;;;;;;;;;6320384;28;20168;-78
2022/05/13 02:49:14;;;;;;;8.68;4.93;;;;;;;;;;6318477;28;20051;-78
2022/05/13 02:52:16;;;;;;;5.97;4.57;;;;;;;;;;6318761;28;20112;-78
2022/05/13 02:55:19;;;;;;;7.35;4.55;;;;;;;;;;6319938;28;20119;-80
2022/05/13 02:58:21;;;;;;;;;;;;;;;;;;6319307;28;20069;-79
2022/05/13 03:01:22;;;;;;;7.57;4.70;;;;;;;;;;6325891;28;19972;-79
2022/05/13 03:04:24;;;;;;;9.32;5.10;;;;;;;;;;6320930;28;20048;-80
2022/05/13 03:07:26;;;;;;;8.32;4.80;;;;;;;;;;6318788;28;20044;-81
2022/05/13 03:10:29;;;;;;;8.27;5.32;;;;;;;;;;6316602;28;20028;-79
2022/05/13 03:13:31;;;;;;;11.23;5.50;;;;;;;;;;6321943;28;20053;-80
2022/05/13 03:16:33;;;;;;;7.35;4.63;;;;;;;;;;6318535;28;20121;-80
2022/05/13 03:19:36;;;;;;;9.30;4.57;;;;;;;;;;6290049;28;20856;-78
2022/05/13 03:22:38;;;;;;;7.35;4.53;;;;;;;;;;6287072;28;20124;-79
2022/05/13 03:25:39;;;;;;;7.22;4.43;;;;;;;;;;6295306;28;20064;-79
2022/05/13 03:28:42;;;;;;;6.85;4.68;;;;;;;;;;6319513;28;20059;-80
2022/05/13 03:31:44;;;;;;;7.13;4.68;;;;;;;;;;6319333;28;20044;-79
2022/05/13 03:34:46;;;;;;;6.65;4.13;;;;;;;;;;6318986;28;20040;-79
2022/05/13 03:37:48;;;;;;;6.60;4.07;;;;;;;;;;6302163;28;20086;-79
2022/05/13 03:40:49;;;;;;;6.88;4.10;;;;;;;;;;6292681;28;20045;-78
2022/05/13 03:43:51;;;;;;;7.65;4.90;;;;;;;;;;6299846;28;20050;-79
2022/05/13 03:46:53;;;;;;;7.30;4.47;;;;;;;;;;6292683;28;20086;-79
2022/05/13 03:49:55;;;;;;;8.00;4.72;;;;;;;;;;6321071;28;20089;-79
2022/05/13 03:52:56;;;;;;;7.40;4.40;;;;;;;;;;6321349;28;20105;-78
2022/05/13 03:55:58;;;;;;;7.18;4.40;;;;;;;;;;6320605;28;20202;-78
2022/05/13 03:59:00;;;;;;;7.15;4.70;;;;;;;;;;6323379;28;20044;-79
2022/05/13 04:02:02;;;;;;;7.53;4.80;;;;;;;;;;6317846;28;20074;-79
2022/05/13 04:16:04;;;;;;;6.05;3.90;;;;;;;;;;6297564;28;20052;-78
2022/05/13 04:18:29;;;;;;;7.43;5.07;;;;;;;;;;6319420;28;20044;-79
2022/05/13 04:21:34;;;;;;;7.32;4.70;;;;;;;;;;6319950;28;20048;-78
2022/05/13 04:24:35;;;;;;;6.88;4.03;;;;;;;;;;6313714;28;20049;-79
2022/05/13 04:27:37;;;;;;;6.35;4.50;;;;;;;;;;6295993;28;20056;-79
2022/05/13 04:30:39;;;;;;;7.00;4.65;;;;;;;;;;6294167;28;20090;-78
2022/05/13 04:33:41;;;;;;;8.38;5.05;;;;;;;;;;6296117;28;20108;-77
2022/05/13 04:36:43;;;;;;;9.38;5.88;;;;;;;;;;6295546;28;20167;-77
2022/05/13 04:39:45;;;;;;;8.73;5.20;;;;;;;;;;6293681;28;20405;-78
2022/05/13 04:42:49;;;;;;;6.22;4.93;;;;;;;;;;6294849;28;20119;-78
2022/05/13 04:45:51;;;;;;;6.72;4.43;;;;;;;;;;6294854;28;20119;-77
2022/05/13 04:48:53;;;;;;;7.25;4.50;;;;;;;;;;6309817;28;20047;-80
2022/05/13 04:51:55;;;;;;;7.25;4.78;;;;;;;;;;6320071;28;20105;-79
2022/05/13 04:54:56;;;;;;;8.27;4.68;;;;;;;;;;6319323;28;20040;-77
2022/05/13 04:57:58;;;;;;;9.75;4.82;;;;;;;;;;6306555;28;20410;-77
2022/05/13 05:01:01;;;;;;;6.88;4.30;;;;;;;;;;6291498;28;20087;-77
2022/05/13 05:04:03;;;;;;;8.60;4.95;;;;;;;;;;6296576;28;20155;-77
2022/05/13 05:07:04;;;;;;;6.35;4.60;;;;;;;;;;6298352;28;20044;-78
2022/05/13 05:10:07;;;;;;;7.25;4.70;;;;;;;;;;6301902;28;20052;-80
2022/05/13 05:13:09;;;;;;;8.20;5.38;;;;;;;;;;6273871;28;20068;-79
2022/05/13 05:16:12;;;;;;;7.25;5.10;;;;;;;;;;6275025;28;20049;-79
2022/05/13 05:19:13;;;;;;;9.07;5.17;;;;;;;;;;6289674;28;20150;-78
2022/05/13 05:22:15;;;;;;;6.35;4.70;;;;;;;;;;6292196;28;20099;-79
2022/05/13 05:25:19;;;;;;;7.85;5.35;;;;;;;;;;6291570;28;20182;-80
2022/05/13 05:28:21;;;;;;;8.15;4.90;;;;;;;;;;6291981;28;20072;-79
2022/05/13 05:31:23;;;;;;;8.20;5.38;;;;;;;;;;6292369;28;20107;-79
2022/05/13 05:34:25;;;;;;;7.75;5.78;;;;;;;;;;6314989;28;20102;-80
2022/05/13 05:37:27;;;;;;;7.75;5.30;;;;;;;;;;6321189;28;20044;-79
2022/05/13 05:40:29;;;;;;;9.00;5.80;;;;;;;;;;6321308;28;20145;-78
2022/05/13 05:43:31;;;;;;;10.30;5.72;;;;;;;;;;6321808;28;20105;-79
2022/05/13 05:46:32;;;;;;;10.30;5.25;;;;;;;;;;6311250;28;20048;-79
2022/05/13 05:49:34;;;;;;;9.15;5.28;;;;;;;;;;6293357;28;20521;-78
2022/05/13 05:52:36;;;;;;;8.05;5.20;;;;;;;;;;6296857;28;20110;-77
2022/05/13 05:58:58;;;;;;;7.82;5.43;;;;;;;;;;6297322;28;20066;-80
2022/05/13 06:01:59;;;;;;;10.55;5.63;;;;;;;;;;6293767;28;20106;-80
2022/05/13 06:05:01;;;;;;;10.20;4.68;;;;;;;;;;6318024;28;20058;-79
2022/05/13 06:08:04;;;;;;;10.70;5.13;;;;;;;;;;6318503;28;20051;-78
2022/05/13 06:11:06;;;;;;;7.25;3.83;;;;;;;;;;6309928;28;20052;-79
2022/05/13 06:14:11;;;;;;;7.33;3.73;;;;;;;;;;6297215;28;20052;-79
2022/05/13 06:17:13;;;;;;;9.57;3.10;;;;;;;;;;6297261;28;20648;-80
2022/05/13 06:20:17;;;;;;;6.68;3.20;;;;;;;;;;6319603;28;20124;-79
2022/05/13 06:23:18;;;;;;;11.50;2.78;;;;;;;;;;6317548;28;20040;-79
2022/05/13 06:26:21;;;;;;;9.73;2.90;;;;;;;;;;6301618;28;20452;-78
2022/05/13 06:29:25;;;;;;;13.27;4.00;;;;;;;;;;6302499;28;20060;-79
2022/05/13 06:32:26;;;;;;;6.57;2.38;;;;;;;;;;6315780;28;20453;-79
2022/05/13 06:35:31;;;;;;;11.23;2.67;;;;;;;;;;6318115;28;20122;-78
2022/05/13 06:38:33;;;;;;;7.07;1.80;;;;;;;;;;6317864;28;20074;-79
2022/05/13 06:41:37;;;;;;;4.50;1.70;;;;;;;;;;6307103;28;20132;-78
2022/05/13 06:44:39;;;;;;;6.25;1.70;;;;;;;;;;6328422;28;20070;-78
2022/05/13 06:47:41;;;;;;;3.42;1.77;;;;;;;;;;6315004;28;20056;-77
2022/05/13 06:50:43;;;;;;;5.55;1.80;;;;;;;;;;6293701;28;20085;-78
2022/05/13 06:53:45;;;;;;;5.80;1.80;;;;;;;;;;6313984;28;20528;-77
2022/05/13 06:56:48;;;;;;;6.10;1.75;;;;;;;;;;6316295;28;20519;-78
2022/05/13 06:59:50;;;;;;;;;;;;;;;;;;6323867;28;20051;-77
2022/05/13 07:02:51;;;;;;;4.38;1.75;;;;;;;;;;6325820;28;19920;-78
2022/05/13 07:05:53;;;;;;;4.30;1.90;;;;;;;;;;6297417;28;20040;-78
2022/05/13 07:08:55;;;;;;;8.77;2.35;;;;;;;;;;6290214;28;20133;-78
2022/05/13 07:11:56;;;;;;;5.80;2.33;;;;;;;;;;6287397;28;20055;-81
2022/05/13 07:14:58;;;;;;;7.32;2.00;;;;;;;;;;6312516;28;20148;-77
2022/05/13 07:18:00;;;;;;;7.10;2.13;;;;;;;;;;6322484;28;20035;-78
2022/05/13 07:21:05;;;;;;;10.07;2.83;;;;;;;;;;6338767;28;20655;-80
2022/05/13 07:24:07;;;;;;;5.53;2.30;;;;;;;;;;6338239;28;20166;-79
2022/05/13 07:27:09;;;;;;;8.43;2.58;;;;;;;;;;6326085;28;20122;-80
2022/05/13 07:30:11;;;;;;;8.45;2.60;;;;;;;;;;6328724;28;20059;-79
2022/05/13 07:33:13;;;;;;;;;;;;;;;;;;6341295;28;20103;-79
2022/05/13 07:36:15;;;;;;;5.07;2.30;;;;;;;;;;6343293;28;19924;-82
2022/05/13 07:42:36;;;;;;;5.38;2.47;;;;;;;;;;6343379;28;20592;-79
2022/05/13 07:45:38;;;;;;;4.85;2.10;;;;;;;;;;6336435;28;20501;-78
2022/05/13 07:48:41;;;;;;;6.95;2.63;;;;;;;;;;6327562;28;20074;-79
2022/05/13 07:51:43;;;;;;;8.37;3.10;;;;;;;;;;6318957;28;20052;-78
2022/05/13 07:54:44;;;;;;;4.50;2.17;;;;;;;;;;6338911;28;20122;-78
2022/05/13 07:57:47;;;;;;;4.93;2.53;;;;;;;;;;6338053;28;20036;-77
2022/05/13 08:00:49;;;;;;;8.93;2.78;;;;;;;;;;6334889;28;20146;-78
2022/05/13 08:03:50;;;;;;;9.27;3.53;;;;;;;;;;6318774;28;20035;-79
2022/05/13 08:06:52;;;;;;;6.15;3.17;;;;;;;;;;6321356;28;20511;-79
2022/05/13 08:09:54;;;;;;;6.22;2.67;;;;;;;;;;6309393;28;20196;-78
2022/05/13 08:12:55;;;;;;;5.15;2.38;;;;;;;;;;6301088;28;20116;-81
2022/05/13 08:15:58;;;;;;;7.32;2.60;;;;;;;;;;6285669;28;20129;-79
2022/05/13 08:19:00;;;;;;;7.32;2.83;;;;;;;;;;6279094;28;20056;-80
2022/05/13 08:22:02;;;;;;;7.90;2.88;;;;;;;;;;6285790;28;20052;-79
2022/05/13 08:25:04;;;;;;;5.63;2.08;;;;;;;;;;6287413;28;20037;-79
2022/05/13 08:28:07;;;;;;;4.67;1.90;;;;;;;;;;6309270;28;20048;-78
2022/05/13 08:31:09;;;;;;;3.33;1.63;;;;;;;;;;6311597;28;20506;-79
2022/05/13 08:34:12;;;;;;;4.32;1.60;;;;;;;;;;6329594;28;20043;-79
2022/05/13 08:37:14;;;;;;;2.88;1.50;;;;;;;;;;6336598;28;20050;-78
2022/05/13 08:40:32;;;;;;;3.22;1.30;;;;;;;;;;6336187;28;20116;-78
2022/05/13 08:43:39;;;;;;;5.15;1.55;;;;;;;;;;6321716;28;20703;-76
2022/05/13 08:47:02;;;;;;;5.30;1.10;;;;;;;;;;6316895;28;20096;-79
2022/05/13 08:50:21;;;;;;;3.08;0.80;;;;;;;;;;6291615;28;20055;-79
2022/05/13 08:53:31;;;;;;;2.28;0.98;;;;;;;;;;6293229;28;20447;-77
2022/05/13 08:56:34;;;;;;;2.75;0.85;;;;;;;;;;6298943;28;20049;-79
2022/05/13 08:59:49;;;;;;;2.95;1.00;;;;;;;;;;6323357;28;20135;-81
2022/05/13 09:02:59;;;;;;;2.35;0.73;;;;;;;;;;6330992;28;20044;-79
2022/05/13 09:06:24;;;;;;;1.85;0.60;;;;;;;;;;6323702;28;20043;-81
2022/05/13 09:09:26;;;;;;;2.00;0.65;;;;;;;;;;6320843;28;20225;-77
2022/05/13 09:12:35;;;;;;;3.65;0.70;;;;;;;;;;6298329;28;20158;-79
2022/05/13 09:15:44;;;;;;;1.63;0.73;;;;;;;;;;6317088;28;20044;-79
2022/05/13 09:19:01;;;;;;;2.70;0.70;;;;;;;;;;6318069;28;20044;-78
2022/05/13 09:22:08;;;;;;;1.67;0.60;;;;;;;;;;6320689;28;20086;-79
2022/05/13 09:25:20;;;;;;;0.65;0.52;;;;;;;;;;6319807;28;20462;-78
2022/05/13 09:28:24;;;;;;;1.93;0.67;;;;;;;;;;6304716;28;20048;-78
2022/05/13 09:31:31;;;;;;;2.83;0.80;;;;;;;;;;6315415;28;20091;-79
2022/05/13 09:34:57;;;;;;;3.55;0.98;;;;;;;;;;6316342;28;20374;-79
2022/05/13 09:38:16;;;;;;;1.60;0.85;;;;;;;;;;6315887;28;20518;-79
2022/05/13 09:41:45;;;;;;;3.45;0.70;;;;;;;;;;6324846;28;20147;-79
2022/05/13 09:45:21;;;;;;;4.22;0.80;;;;;;;;;;6343136;28;20082;-79
2022/05/13 09:48:23;;;;;;;2.35;0.80;;;;;;;;;;6327312;28;20560;-79
2022/05/13 09:51:31;;;;;;;2.05;0.75;;;;;;;;;;6339671;28;20165;-78
2022/05/13 09:54:35;;;;;;;1.67;0.50;;;;;;;;;;6340048;28;20080;-77
2022/05/13 09:57:38;;;;;;;1.17;0.60;;;;;;;;;;6319651;28;20484;-77
2022/05/13 10:00:41;;;;;;;6.50;1.13;;;;;;;;;;6313310;28;20128;-77
2022/05/13 10:03:58;;;;;;;;;;;;;;;;;;6310751;28;20098;-77
2022/05/13 10:07:13;;;;;;;2.47;0.70;;;;;;;;;;6314733;28;20392;-77
2022/05/13 10:14:00;;;;;;;0.80;0.50;;;;;;;;;;6312489;28;20095;-78
2022/05/13 10:17:11;;;;;;;2.30;0.70;;;;;;;;;;6311856;28;20130;-78
2022/05/13 10:20:25;;;;;;;3.17;0.80;;;;;;;;;;6312421;28;20136;-79
2022/05/13 10:23:41;;;;;;;1.90;0.70;;;;;;;;;;6314142;28;20052;-78
2022/05/13 10:26:45;;;;;;;4.70;0.90;;;;;;;;;;6291892;28;20045;-78
2022/05/13 10:29:50;;;;;;;1.27;0.60;;;;;;;;;;6336062;28;20058;-77
2022/05/13 10:33:02;;;;;;;3.30;0.80;;;;;;;;;;6324247;28;20190;-76
2022/05/13 10:36:19;;;;;;;1.13;0.60;;;;;;;;;;6309537;28;20048;-77
2022/05/13 10:39:23;;;;;;;2.88;0.70;;;;;;;;;;6309370;28;20043;-77
2022/05/13 10:42:31;;;;;;;3.55;0.80;;;;;;;;;;6308275;28;20083;-78
2022/05/13 10:45:33;;;;;;;2.25;0.73;;;;;;;;;;6312291;28;20505;-78
2022/05/13 10:48:35;;;;;;;3.28;0.80;;;;;;;;;;6322457;28;20642;-78
2022/05/13 10:52:16;;;;;;;1.52;0.70;;;;;;;;;;6286286;28;20194;-78
2022/05/13 10:55:35;;;;;;;2.05;0.73;;;;;;;;;;6290199;28;20045;-78
2022/05/13 10:59:04;;;;;;;6.05;0.85;;;;;;;;;;6289590;28;20097;-79
2022/05/13 11:02:43;;;;;;;2.33;1.13;;;;;;;;;;6284898;28;20152;-79
2022/05/13 11:06:19;;;;;;;2.13;0.80;;;;;;;;;;6309866;28;20059;-79
2022/05/13 11:09:27;;;;;;;2.00;0.77;;;;;;;;;;6292969;28;20043;-78
2022/05/13 11:13:02;;;;;;;3.30;0.90;;;;;;;;;;6288356;28;20077;-77
2022/05/13 11:16:13;;;;;;;4.10;0.98;;;;;;;;;;6285027;28;20119;-79
2022/05/13 11:19:30;;;;;;;1.95;0.90;;;;;;;;;;6290839;28;20043;-79
2022/05/13 11:22:40;;;;;;;3.42;0.88;;;;;;;;;;6288437;28;20044;-78
2022/05/13 11:25:59;;;;;;;2.35;1.08;;;;;;;;;;6304855;28;20043;-78
2022/05/13 11:29:20;;;;;;;1.92;0.80;;;;;;;;;;6313056;28;20048;-78
2022/05/13 11:32:44;;;;;;;4.47;0.88;;;;;;;;;;6309338;28;20098;-79
2022/05/13 11:36:24;;;;;;;2.17;0.63;;;;;;;;;;6286821;28;20071;-78
2022/05/13 11:39:50;;;;;;;4.65;0.88;;;;;;;;;;6288298;28;20486;-78
2022/05/13 11:43:25;;;;;;;1.30;0.80;;;;;;;;;;6300136;28;20077;-78
2022/05/13 11:46:51;;;;;;;1.33;0.85;;;;;;;;;;6301766;28;20072;-78
2022/05/13 11:49:56;;;;;;;2.53;1.00;;;;;;;;;;6307034;28;20404;-78
2022/05/13 11:52:59;;;;;;;2.97;1.00;;;;;;;;;;6312195;28;20052;-78
2022/05/13 11:56:13;;;;;;;;;;;;;;;;;;6310695;28;20127;-78
2022/05/13 11:59:27;;;;;;;2.33;0.60;;;;;;;;;;6291869;28;19927;-78
2022/05/13 12:02:32;;;;;;;2.38;0.95;;;;;;;;;;6285254;28;20075;-78
2022/05/13 12:05:46;;;;;;;1.38;0.80;;;;;;;;;;6286797;28;20155;-77
2022/05/13 12:08:59;;;;;;;2.67;0.88;;;;;;;;;;6286677;28;20047;-77
2022/05/13 12:12:27;;;;;;;3.67;1.00;;;;;;;;;;6284423;28;20447;-78
2022/05/13 12:15:39;;;;;;;2.25;0.88;;;;;;;;;;6286810;28;20468;-78
2022/05/13 12:19:18;;;;;;;3.47;0.90;;;;;;;;;;6288014;28;20064;-78
2022/05/13 12:22:29;;;;;;;4.28;0.73;;;;;;;;;;6290254;28;20040;-78
2022/05/13 12:25:31;;;;;;;1.98;0.88;;;;;;;;;;6289330;28;20052;-78
2022/05/13 12:29:00;;;;;;;4.32;1.00;;;;;;;;;;6290650;28;20135;-78
2022/05/13 12:32:02;;;;;;;3.20;1.00;;;;;;;;;;6289660;28;20071;-77
2022/05/13 12:38:33;;;;;;;2.65;0.90;;;;;;;;;;6317455;28;20139;-78
2022/05/13 12:42:09;;;;;;;6.65;0.70;;;;;;;;;;6315598;28;20044;-78
2022/05/13 12:45:12;;;;;;;3.38;0.93;;;;;;;;;;6266323;28;20045;-78
2022/05/13 12:48:17;;;;;;;2.97;0.70;;;;;;;;;;6303149;28;20066;-79
2022/05/13 12:51:20;;;;;;;4.40;0.90;;;;;;;;;;6291859;28;20421;-78
2022/05/13 12:54:25;;;;;;;1.45;0.80;;;;;;;;;;6290844;28;20052;-79
2022/05/13 12:57:37;;;;;;;2.15;0.93;;;;;;;;;;6292984;28;20171;-80
2022/05/13 13:00:45;;;;;;;5.18;0.90;;;;;;;;;;6276095;28;20040;-79
2022/05/13 13:03:48;;;;;;;2.95;0.75;;;;;;;;;;6287619;28;20067;-80
2022/05/13 13:06:52;;;;;;;5.72;0.90;;;;;;;;;;6289855;28;20036;-78
2022/05/13 13:09:56;;;;;;;3.20;0.88;;;;;;;;;;6289445;28;20127;-79
2022/05/13 13:13:07;;;;;;;3.58;0.77;;;;;;;;;;6302336;28;20566;-78
2022/05/13 13:16:26;;;;;;;1.70;0.70;;;;;;;;;;6315065;28;20069;-78
2022/05/13 13:19:30;;;;;;;4.55;0.80;;;;;;;;;;6294001;28;20044;-78
2022/05/13 13:22:38;;;;;;;2.25;0.77;;;;;;;;;;6285716;28;20119;-77
2022/05/13 13:25:45;;;;;;;2.78;0.85;;;;;;;;;;6287503;28;20048;-78
2022/05/13 13:28:52;;;;;;;1.23;0.77;;;;;;;;;;6302947;28;20130;-78
2022/05/13 13:31:58;;;;;;;1.25;0.73;;;;;;;;;;6315444;28;20044;-77
2022/05/13 13:35:02;;;;;;;4.57;0.90;;;;;;;;;;6290647;28;20048;-78
2022/05/13 13:38:08;;;;;;;6.03;1.00;;;;;;;;;;6291253;28;20090;-77
2022/05/13 13:41:09;;;;;;;2.88;0.73;;;;;;;;;;6289885;28;20623;-78
2022/05/13 13:44:14;;;;;;;4.38;0.80;;;;;;;;;;6295405;28;20068;-77
2022/05/13 13:47:29;;;;;;;2.83;0.90;;;;;;;;;;6296925;28;20613;-78
2022/05/13 13:50:32;;;;;;;1.92;0.68;;;;;;;;;;6320508;28;20090;-79
2022/05/13 13:53:34;;;;;;;;;;;;;;;;;;6323972;28;20056;-78
2022/05/13 13:56:44;;;;;;;2.83;0.80;;;;;;;;;;6322346;28;19926;-79
2022/05/13 13:59:58;;;;;;;2.00;0.80;;;;;;;;;;6322422;28;20040;-78
2022/05/13 14:03:14;;;;;;;3.38;0.90;;;;;;;;;;6281468;28;20048;-78
2022/05/13 14:06:21;;;;;;;3.85;1.17;;;;;;;;;;6298205;28;20041;-77
2022/05/13 14:09:34;;;;;;;2.38;0.82;;;;;;;;;;6298461;28;20162;-79
2022/05/13 14:12:38;;;;;;;1.98;0.90;;;;;;;;;;6309621;28;20131;-78
2022/05/13 14:15:45;;;;;;;3.15;0.93;;;;;;;;;;6328228;28;20423;-78
2022/05/13 14:18:51;;;;;;;2.70;0.90;;;;;;;;;;6328952;28;20036;-78
2022/05/13 14:22:00;;;;;;;2.85;0.70;;;;;;;;;;6321253;28;20127;-78
2022/05/13 14:25:06;;;;;;;3.53;0.93;;;;;;;;;;6309946;28;20044;-79
2022/05/13 14:28:13;;;;;;;1.80;0.85;;;;;;;;;;6332934;28;20520;-78
2022/05/13 14:31:33;;;;;;;2.00;0.80;;;;;;;;;;6320032;28;20113;-79
2022/05/13 14:34:35;;;;;;;2.70;0.90;;;;;;;;;;6296067;28;20202;-79
2022/05/13 14:37:51;;;;;;;3.60;0.90;;;;;;;;;;6294801;28;20044;-79
2022/05/13 14:40:53;;;;;;;4.75;0.95;;;;;;;;;;6292218;28;20052;-79
2022/05/13 14:43:56;;;;;;;2.03;0.90;;;;;;;;;;6294980;28;20045;-79
2022/05/13 14:47:05;;;;;;;4.10;1.00;;;;;;;;;;6294884;28;20529;-79
2022/05/13 14:50:11;;;;;;;2.67;1.17;;;;;;;;;;6269384;28;20037;-79
2022/05/13 14:53:17;;;;;;;6.13;1.00;;;;;;;;;;6268593;28;20102;-79
2022/05/13 14:56:27;;;;;;;1.80;0.73;;;;;;;;;;6271676;28;20068;-79
2022/05/13 14:59:52;;;;;;;2.22;0.80;;;;;;;;;;6295130;28;20048;-79
2022/05/13 15:02:54;;;;;;;4.43;0.80;;;;;;;;;;6293844;28;20097;-78
2022/05/13 15:05:57;;;;;;;1.15;0.70;;;;;;;;;;6294267;28;20040;-79
2022/05/13 15:09:38;;;;;;;3.72;1.20;;;;;;;;;;6289120;28;20040;-77
2022/05/13 15:12:40;;;;;;;2.45;0.77;;;;;;;;;;6190490;28;20051;-78
2022/05/13 15:15:42;;;;;;;3.85;1.10;;;;;;;;;;6193721;28;20072;-78
2022/05/13 15:18:44;;;;;;;2.60;0.88;;;;;;;;;;6282267;28;20432;-78
2022/05/13 15:21:46;;;;;;;2.55;1.05;;;;;;;;;;6287343;28;20178;-77
2022/05/13 15:24:48;;;;;;;2.67;1.08;;;;;;;;;;6283641;28;20155;-76
2022/05/13 15:27:50;;;;;;;2.85;1.00;;;;;;;;;;6272098;28;20044;-77
2022/05/13 15:30:55;;;;;;;3.72;1.08;;;;;;;;;;6280581;28;20082;-77
2022/05/13 15:33:57;;;;;;;1.92;0.80;;;;;;;;;;6285907;28;20142;-77
2022/05/13 15:36:59;;;;;;;2.05;0.90;;;;;;;;;;6283735;28;20071;-78
2022/05/13 15:40:04;;;;;;;5.57;0.93;;;;;;;;;;6289832;28;20048;-78
2022/05/13 15:43:07;;;;;;;3.03;0.80;;;;;;;;;;6301111;28;20166;-77
2022/05/13 15:46:11;;;;;;;;;;;;;;;;;;6291528;28;20051;-77
2022/05/13 15:52:42;;;;;;;1.30;0.70;;;;;;;;;;6297094;28;20057;-78
2022/05/13 15:55:48;;;;;;;4.78;1.02;;;;;;;;;;6304775;28;20065;-77
2022/05/13 15:58:50;;;;;;;5.03;1.20;;;;;;;;;;6314461;28;20272;-77
2022/05/13 16:02:12;;;;;;;2.72;0.98;;;;;;;;;;6304342;28;20051;-78
2022/05/13 16:05:17;;;;;;;3.30;0.80;;;;;;;;;;6305816;28;20040;-77
2022/05/13 16:08:18;;;;;;;3.35;0.80;;;;;;;;;;6287991;28;20181;-77
2022/05/13 16:11:25;;;;;;;1.57;0.73;;;;;;;;;;6303400;28;20101;-77
2022/05/13 16:14:28;;;;;;;2.53;0.90;;;;;;;;;;6305267;28;20174;-77
2022/05/13 16:17:31;;;;;;;2.05;0.93;;;;;;;;;;6302354;28;20771;-76
2022/05/13 16:20:33;;;;;;;2.42;0.70;;;;;;;;;;6305048;28;20451;-77
2022/05/13 16:23:37;;;;;;;3.13;0.85;;;;;;;;;;6295844;28;20459;-76
2022/05/13 16:26:39;;;;;;;1.60;0.93;;;;;;;;;;6297794;28;20052;-77
2022/05/13 16:29:41;;;;;;;4.15;0.80;;;;;;;;;;6297019;28;20044;-77
2022/05/13 16:32:43;;;;;;;3.70;0.90;;;;;;;;;;6299450;28;20044;-78
2022/05/13 16:35:44;;;;;;;2.80;0.80;;;;;;;;;;6300654;28;20138;-78
2022/05/13 16:38:46;;;;;;;2.87;0.80;;;;;;;;;;6283702;28;20056;-77
2022/05/13 16:41:48;;;;;;;5.40;1.37;;;;;;;;;;6275066;28;20198;-77
2022/05/13 16:44:50;;;;;;;1.33;0.90;;;;;;;;;;6301795;28;20568;-78
2022/05/13 16:47:52;;;;;;;1.33;0.90;;;;;;;;;;6318036;28;20705;-78
2022/05/13 16:50:53;;;;;;;2.90;0.77;;;;;;;;;;6339068;28;20100;-78
2022/05/13 16:53:55;;;;;;;4.40;0.90;;;;;;;;;;6329165;28;20094;-79
2022/05/13 16:56:57;;;;;;;3.92;0.73;;;;;;;;;;6333622;28;20436;-80
2022/05/13 16:59:58;;;;;;;2.15;0.93;;;;;;;;;;6314433;28;20042;-79
2022/05/13 17:03:00;;;;;;;2.58;0.70;;;;;;;;;;6316287;28;20339;-79
2022/05/13 17:06:02;;;;;;;2.85;0.77;;;;;;;;;;6316192;28;20127;-78
2022/05/13 17:19:16;;;;;;;4.32;0.63;;;;;;;;;;6320819;28;20055;-78
2022/05/13 17:22:18;;;;;;;3.90;0.90;;;;;;;;;;6308672;28;20036;-78
2022/05/13 17:25:19;;;;;;;3.22;0.70;;;;;;;;;;6317979;28;20059;-78
2022/05/13 17:28:21;;;;;;;2.75;0.68;;;;;;;;;;6319493;28;20068;-79
2022/05/13 17:31:23;;;;;;;1.92;0.63;;;;;;;;;;6318403;28;20117;-79
2022/05/13 17:34:26;;;;;;;3.58;0.95;;;;;;;;;;6299261;28;20046;-78
2022/05/13 17:37:30;;;;;;;1.63;0.80;;;;;;;;;;6319784;28;20234;-79
2022/05/13 17:40:36;;;;;;;3.33;0.93;;;;;;;;;;6300268;28;20072;-78
2022/05/13 17:43:38;;;;;;;2.95;0.90;;;;;;;;;;6317093;28;20067;-78
2022/05/13 17:46:41;;;;;;;4.60;0.80;;;;;;;;;;6319585;28;20047;-79
2022/05/13 17:49:42;;;;;;;2.45;0.80;;;;;;;;;;6341998;28;20052;-79
2022/05/13 17:52:44;;;;;;;2.45;0.90;;;;;;;;;;6344302;28;20107;-78
2022/05/13 17:55:46;;;;;;;3.45;0.93;;;;;;;;;;6343677;28;20051;-79
2022/05/13 17:58:48;;;;;;;1.98;0.75;;;;;;;;;;6312734;28;20178;-78
2022/05/13 18:01:50;;;;;;;2.28;0.75;;;;;;;;;;6294642;28;20109;-77
2022/05/13 18:04:52;;;;;;;3.15;0.80;;;;;;;;;;6288507;28;20040;-77
2022/05/13 18:07:53;;;;;;;2.85;0.85;;;;;;;;;;6290167;28;20064;-77
2022/05/13 18:10:56;;;;;;;4.13;1.02;;;;;;;;;;6289298;28;20041;-78
2022/05/13 18:13:58;;;;;;;1.80;0.80;;;;;;;;;;6302189;28;20117;-78
2022/05/13 18:17:00;;;;;;;3.75;0.90;;;;;;;;;;6306494;28;20461;-79
2022/05/13 18:20:03;;;;;;;3.78;0.80;;;;;;;;;;6249138;28;20052;-79
2022/05/13 18:23:05;;;;;;;6.32;1.10;;;;;;;;;;6283952;28;20045;-78
2022/05/13 18:26:07;;;;;;;1.25;0.85;;;;;;;;;;6305156;28;20272;-79
2022/05/13 18:29:09;;;;;;;3.10;0.80;;;;;;;;;;6326824;28;20096;-79
2022/05/13 18:32:11;;;;;;;1.13;0.70;;;;;;;;;;6314615;28;20071;-77
2022/05/13 18:35:13;;;;;;;1.77;0.70;;;;;;;;;;6317342;28;20054;-79
2022/05/13 18:38:15;;;;;;;3.22;0.80;;;;;;;;;;6334842;28;20051;-79
2022/05/13 18:48:06;;;;;;;2.83;1.00;;;;;;;;;;6302270;28;20044;-79
2022/05/13 18:51:10;;;;;;;2.37;0.90;;;;;;;;;;6284056;28;20118;-78
2022/05/13 18:54:13;;;;;;;4.72;1.10;;;;;;;;;;6284920;28;20052;-79
2022/05/13 18:57:14;;;;;;;4.20;1.25;;;;;;;;;;6298943;28;20852;-79
2022/05/13 19:00:16;;;;;;;4.30;1.17;;;;;;;;;;6311117;28;20055;-78
2022/05/13 19:03:18;;;;;;;2.90;0.87;;;;;;;;;;6317632;28;20051;-79
2022/05/13 19:06:22;;;;;;;1.20;0.98;;;;;;;;;;6314116;28;20046;-77
2022/05/13 19:09:23;;;;;;;8.57;3.30;;;;;;;;;;6333103;28;20074;-77
2022/05/13 19:12:25;;;;;;;11.25;5.30;;;;;;;;;;6302024;28;20041;-79
2022/05/13 19:15:27;;;;;;;4.63;1.80;;;;;;;;;;6281083;28;20063;-78
2022/05/13 19:18:31;;;;;;;4.03;1.45;;;;;;;;;;6276061;28;20044;-78
2022/05/13 19:21:33;;;;;;;3.10;1.70;;;;;;;;;;6291455;28;20135;-79
2022/05/13 19:24:35;;;;;;;2.85;1.73;;;;;;;;;;6284545;28;20125;-79
2022/05/13 19:27:37;;;;;;;3.20;1.92;;;;;;;;;;6302876;28;20111;-78